KPIR/PIR METAR and TAF weather

Enter ICAO airport designator
Station Type Date Time Source
KPIR METAR 2019/06/18 03:53 UTC NOAA

KPIR 180353Z AUTO 03004KT 10SM CLR 14/09 A3005 RMK AO2 SLP171 T01440094


Station Type Date Time Source
KPIR Decoded METAR 2019/06/18 03:53 UTC NOAA

PIERRE REGIONAL AIRPORT, SD, United States (KPIR) 44-23N 100-17W 526M
Jun 17, 2019 - 11:53 PM EDT / 2019.06.18 0353 UTC
Wind: from the NNE (030 degrees) at 5 MPH (4 KT):0
Visibility: 10 mile(s):0
Sky conditions: clear
Temperature: 57.9 F (14.4 C)
Dew Point: 48.9 F (9.4 C)
Relative Humidity: 71%
Pressure (altimeter): 30.05 in. Hg (1017 hPa)
ob: KPIR 180353Z AUTO 03004KT 10SM CLR 14/09 A3005 RMK AO2 SLP171 T01440094
cycle: 4

Station Type Date Time Source
KPIR TAF 2019/06/17 18:42 UTC NOAA

TAF KPIR 171739Z 1718/1818 04009KT P6SM SCT050 BKN070
FM180000 08007KT P6SM SCT050 BKN100
FM180300 09006KT P6SM SCT180
FM181600 12006KT P6SM BKN090

Example: see airport list